Time;durP1;ratioP1;P1;durP2;ratioP2;P2;SDS_P1;SDS_P2;PMS_P1;PMS_P2;Temp;Humidity;BMP_temperature;BMP_pressure;BME280_temperature;BME280_humidity;BME280_pressure;Samples;Min_cycle;Max_cycle;Signal;HPM_P1;HPM_P2
2022/01/12 00:02:01;;;;;;;0.60;0.60;;;;;;;17.74;41.52;95533.66;4993098;28;20029;-61
2022/01/12 00:04:29;;;;;;;0.55;0.55;;;;;;;17.77;41.51;95536.66;5012208;28;20021;-61
2022/01/12 00:06:54;;;;;;;0.50;0.43;;;;;;;17.76;41.55;95536.88;5000941;28;20026;-62
2022/01/12 00:09:20;;;;;;;0.50;0.50;;;;;;;17.75;41.72;95543.97;5016921;28;20026;-62
2022/01/12 00:11:45;;;;;;;0.60;0.60;;;;;;;17.75;41.58;95541.31;5015223;28;20028;-61
2022/01/12 00:14:11;;;;;;;0.50;0.50;;;;;;;17.75;41.62;95530.00;4998250;28;20037;-62
2022/01/12 00:16:36;;;;;;;0.50;0.50;;;;;;;17.75;41.46;95530.00;5012669;28;20040;-61
2022/01/12 00:19:01;;;;;;;0.52;0.52;;;;;;;17.72;41.67;95527.78;5017625;28;20025;-61
2022/01/12 00:21:27;;;;;;;0.40;0.40;;;;;;;17.75;41.50;95527.38;4998880;28;20037;-61
2022/01/12 00:23:52;;;;;;;0.50;0.50;;;;;;;17.75;41.62;95524.75;5016074;28;20037;-61
2022/01/12 00:34:28;;;;;;;0.60;0.60;;;;;;;17.73;41.46;95518.91;5013702;28;20091;-60
2022/01/12 00:36:53;;;;;;;0.40;0.40;;;;;;;17.70;41.51;95506.97;4996411;28;20025;-61
2022/01/12 00:39:18;;;;;;;0.50;0.50;;;;;;;17.73;41.50;95519.69;5001560;28;20037;-61
2022/01/12 00:41:44;;;;;;;0.50;0.50;;;;;;;17.73;41.53;95511.81;5028582;28;20033;-61
2022/01/12 00:44:11;;;;;;;0.50;0.50;;;;;;;17.71;41.55;95507.78;5017656;28;20038;-61
2022/01/12 00:46:38;;;;;;;0.47;0.47;;;;;;;17.76;41.39;95513.19;5022942;28;20059;-61
2022/01/12 00:49:03;;;;;;;0.50;0.50;;;;;;;17.74;41.57;95513.44;5011646;28;20018;-61
2022/01/12 00:51:31;;;;;;;0.40;0.40;;;;;;;17.71;41.58;95508.59;4996666;28;20040;-61
2022/01/12 00:53:57;;;;;;;0.60;0.60;;;;;;;17.73;41.55;95508.38;4991887;28;20032;-60
2022/01/12 00:56:25;;;;;;;0.60;0.45;;;;;;;17.72;41.61;95506.75;4999962;28;20167;-61
2022/01/12 00:58:50;;;;;;;0.43;0.43;;;;;;;17.72;41.56;95514.63;4996870;28;20033;-61
2022/01/12 01:01:19;;;;;;;0.60;0.60;;;;;;;17.74;41.50;95515.22;5017613;28;20037;-61
2022/01/12 01:03:49;;;;;;;0.60;0.50;;;;;;;17.74;41.60;95512.59;5000779;28;20033;-62
2022/01/12 01:06:14;;;;;;;0.50;0.50;;;;;;;17.72;41.43;95514.63;5002376;28;20025;-61
2022/01/12 01:08:40;;;;;;;0.50;0.50;;;;;;;17.74;41.50;95516.06;5023291;28;20029;-61
2022/01/12 01:11:05;;;;;;;0.80;0.50;;;;;;;17.73;41.60;95518.91;5011070;28;20022;-61
2022/01/12 01:13:54;;;;;;;0.60;0.50;;;;;;;17.72;41.45;95509.38;5009759;28;20033;-62
2022/01/12 01:27:29;;;;;;;0.50;0.50;;;;;;;17.68;41.69;95498.47;5028137;28;20102;-62
2022/01/12 01:29:55;;;;;;;0.50;0.50;;;;;;;17.72;41.57;95501.50;5014379;28;20116;-61
2022/01/12 01:32:21;;;;;;;0.50;0.50;;;;;;;17.72;41.49;95504.13;5034810;28;20067;-60
2022/01/12 01:34:48;;;;;;;0.45;0.45;;;;;;;17.71;41.50;95507.78;5015229;28;20033;-61
2022/01/12 01:37:14;;;;;;;0.50;0.50;;;;;;;17.69;41.77;95496.69;5035273;28;20033;-61
2022/01/12 01:39:39;;;;;;;0.52;0.50;;;;;;;17.74;41.57;95513.44;5022763;28;20039;-61
2022/01/12 01:42:13;;;;;;;0.40;0.40;;;;;;;17.72;41.57;95517.28;5040592;28;20047;-62
2022/01/12 01:55:18;;;;;;;0.50;0.50;;;;;;;17.63;41.60;95508.03;5034353;28;20040;-62
2022/01/12 01:57:44;;;;;;;0.43;0.43;;;;;;;17.71;41.64;95515.69;4993909;28;20029;-61
2022/01/12 02:00:17;;;;;;;0.50;0.50;;;;;;;17.67;41.51;95515.28;5018529;28;20036;-62
2022/01/12 02:02:44;;;;;;;0.50;0.50;;;;;;;17.69;41.47;95515.88;4998165;28;20135;-61
2022/01/12 02:05:12;;;;;;;0.60;0.50;;;;;;;17.72;41.52;95528.59;5001083;28;20037;-61
2022/01/12 02:07:37;;;;;;;0.52;0.52;;;;;;;17.67;41.43;95523.19;5021425;28;20029;-61
2022/01/12 02:10:03;;;;;;;0.40;0.40;;;;;;;17.75;41.56;95530.00;5008331;28;20037;-61
2022/01/12 02:12:29;;;;;;;0.40;0.40;;;;;;;17.71;41.44;95528.84;5015464;28;20038;-61
2022/01/12 02:14:55;;;;;;;0.50;0.50;;;;;;;17.70;41.56;95521.94;5018822;28;20025;-61
2022/01/12 02:17:26;;;;;;;0.40;0.40;;;;;;;17.70;41.31;95522.75;5009141;28;20061;-61
2022/01/12 02:35:15;;;;;;;0.47;0.45;;;;;;;17.71;41.47;95521.72;5017885;28;20041;-61
2022/01/12 02:36:32;;;;;;;0.40;0.40;;;;;;;17.70;41.31;95529.84;5015040;28;20116;-61
2022/01/12 02:41:42;;;;;;;0.40;0.40;;;;;;;17.69;41.46;95533.50;5013007;28;20047;-61
2022/01/12 02:54:46;;;;;;;0.50;0.50;;;;;;;17.65;41.44;95538.38;5020522;28;20033;-61
2022/01/12 02:57:12;;;;;;;0.40;0.40;;;;;;;17.70;41.50;95535.09;5014965;28;20033;-61
2022/01/12 02:59:40;;;;;;;0.38;0.38;;;;;;;17.67;41.31;95533.72;5011464;28;20057;-62
2022/01/12 03:04:50;;;;;;;0.40;0.40;;;;;;;17.69;41.40;95538.75;5024122;28;20048;-61
2022/01/12 03:07:19;;;;;;;0.50;0.50;;;;;;;17.71;41.49;95552.50;5018225;28;20021;-62
2022/01/12 03:09:45;;;;;;;0.40;0.40;;;;;;;17.69;41.49;95549.28;5017964;28;20087;-61
2022/01/12 03:12:10;;;;;;;0.40;0.40;;;;;;;17.67;41.39;95552.13;5032291;28;20033;-61
2022/01/12 03:14:36;;;;;;;0.50;0.50;;;;;;;17.71;41.43;95553.31;4986900;28;20032;-61
2022/01/12 03:17:01;;;;;;;0.40;0.40;;;;;;;17.68;41.47;95558.19;5012116;28;20044;-61
2022/01/12 03:19:29;;;;;;;0.45;0.45;;;;;;;17.70;41.41;95561.41;5019890;28;20021;-61
2022/01/12 03:21:54;;;;;;;0.50;0.50;;;;;;;17.72;41.34;95554.09;5034902;28;20033;-61
2022/01/12 03:24:20;;;;;;;0.40;0.40;;;;;;;17.68;41.42;95556.34;5020200;28;20040;-61
2022/01/12 03:26:47;;;;;;;0.40;0.40;;;;;;;17.69;41.49;95565.06;5017335;28;20033;-61
2022/01/12 03:29:13;;;;;;;0.40;0.40;;;;;;;17.70;41.59;95561.41;5004305;28;20053;-61
2022/01/12 03:31:39;;;;;;;0.50;0.50;;;;;;;17.69;41.34;95562.44;5029145;28;20040;-61
2022/01/12 03:34:24;;;;;;;0.43;0.43;;;;;;;17.70;41.54;95569.28;5031572;28;20028;-61
2022/01/12 03:37:18;;;;;;;0.40;0.40;;;;;;;17.68;41.34;95558.19;5008131;28;20024;-61
2022/01/12 03:39:43;;;;;;;0.50;0.50;;;;;;;17.67;41.30;95567.91;5025982;28;20024;-61
2022/01/12 03:42:08;;;;;;;0.40;0.40;;;;;;;17.72;41.29;95562.00;5028112;28;20037;-61
2022/01/12 03:44:34;;;;;;;0.40;0.40;;;;;;;17.70;41.55;95571.94;5015787;28;20033;-61
2022/01/12 03:46:59;;;;;;;0.43;0.43;;;;;;;17.69;41.41;95567.69;5010078;28;20080;-61
2022/01/12 03:49:25;;;;;;;0.50;0.50;;;;;;;17.70;41.37;95575.34;5000494;28;20028;-61
2022/01/12 03:51:50;;;;;;;0.40;0.40;;;;;;;17.69;41.39;95572.97;5014425;28;20033;-61
2022/01/12 03:54:16;;;;;;;0.32;0.32;;;;;;;17.68;41.42;95576.59;5011592;28;20025;-61
2022/01/12 03:56:42;;;;;;;0.50;0.50;;;;;;;17.69;41.46;95578.22;4998952;28;20251;-61
2022/01/12 03:59:12;;;;;;;0.40;0.40;;;;;;;17.70;41.30;95592.97;5022091;28;20041;-61
2022/01/12 04:01:37;;;;;;;0.40;0.40;;;;;;;17.67;41.43;95585.50;5007621;28;20096;-61
2022/01/12 04:04:06;;;;;;;0.40;0.40;;;;;;;17.67;41.34;95596.00;4996724;28;20033;-61
2022/01/12 04:09:16;;;;;;;0.40;0.40;;;;;;;17.66;41.44;95597.06;5036442;28;20056;-61
2022/01/12 04:11:41;;;;;;;0.40;0.40;;;;;;;17.68;41.42;95595.00;5013230;28;20032;-61
2022/01/12 04:14:07;;;;;;;0.43;0.43;;;;;;;17.70;41.44;95603.50;5012096;28;20037;-61
2022/01/12 04:16:33;;;;;;;0.50;0.50;;;;;;;17.66;41.50;95594.41;4998540;28;20183;-61
2022/01/12 04:18:58;;;;;;;0.30;0.30;;;;;;;17.63;41.32;95587.78;5000023;28;20026;-61
2022/01/12 04:21:28;;;;;;;0.40;0.40;;;;;;;17.69;41.32;95594.00;5019789;28;20034;-61
2022/01/12 04:23:54;;;;;;;0.30;0.30;;;;;;;17.67;41.31;95599.47;5001589;28;20029;-61
2022/01/12 04:26:19;;;;;;;0.40;0.40;;;;;;;17.69;41.32;95599.28;4992623;28;20025;-61
2022/01/12 04:28:45;;;;;;;0.32;0.32;;;;;;;17.68;41.27;95606.34;5000700;28;20036;-61
2022/01/12 04:31:13;;;;;;;0.50;0.40;;;;;;;17.69;41.29;95596.63;5028691;28;20033;-61
2022/01/12 04:33:39;;;;;;;0.50;0.50;;;;;;;17.68;41.29;95590.53;5011159;28;20024;-62
2022/01/12 04:36:05;;;;;;;0.40;0.40;;;;;;;17.66;41.49;95581.25;5010170;28;20027;-61
2022/01/12 04:38:34;;;;;;;0.40;0.40;;;;;;;17.65;41.39;95587.53;5004048;28;20033;-61
2022/01/12 04:41:03;;;;;;;0.43;0.43;;;;;;;17.67;41.47;95586.31;5009903;28;20025;-61
2022/01/12 04:43:29;;;;;;;0.35;0.35;;;;;;;17.68;41.38;95585.28;5000055;28;20025;-61
2022/01/12 04:50:48;;;;;;;0.40;0.40;;;;;;;17.69;41.46;95594.00;5012637;28;20094;-61
2022/01/12 04:53:14;;;;;;;0.40;0.40;;;;;;;17.69;41.26;95605.31;5030901;28;20026;-61
2022/01/12 04:55:40;;;;;;;0.30;0.30;;;;;;;17.67;41.47;95609.16;5019463;28;20060;-61
2022/01/12 04:58:08;;;;;;;0.40;0.40;;;;;;;17.64;41.26;95605.16;5016041;28;20025;-61
2022/01/12 05:00:34;;;;;;;0.47;0.43;;;;;;;17.66;41.43;95608.38;5022502;28;20026;-62
2022/01/12 05:13:37;;;;;;;0.40;0.40;;;;;;;17.68;41.38;95613.44;5022126;28;20091;-61
2022/01/12 05:16:03;;;;;;;0.30;0.30;;;;;;;17.67;41.39;95619.69;5015746;28;20037;-61
2022/01/12 05:18:29;;;;;;;0.40;0.40;;;;;;;17.65;41.42;95613.84;5015367;28;20029;-61
2022/01/12 05:20:54;;;;;;;0.40;0.40;;;;;;;17.68;41.25;95623.94;4999207;28;20088;-61
2022/01/12 05:23:20;;;;;;;0.40;0.40;;;;;;;17.68;41.37;95621.31;5002131;28;20314;-61
2022/01/12 05:25:46;;;;;;;0.40;0.40;;;;;;;17.70;41.35;95627.16;5004020;28;20052;-61
2022/01/12 05:28:12;;;;;;;0.40;0.40;;;;;;;17.68;41.20;95623.94;4995916;28;20036;-61
2022/01/12 05:30:41;;;;;;;0.40;0.40;;;;;;;17.69;41.34;95633.47;5016564;28;20037;-61
2022/01/12 05:33:06;;;;;;;0.40;0.40;;;;;;;17.65;41.41;95629.63;5015639;28;20069;-62
2022/01/12 05:35:33;;;;;;;0.40;0.40;;;;;;;17.67;41.19;95638.09;5010685;28;20516;-61
2022/01/12 05:37:59;;;;;;;0.40;0.40;;;;;;;17.69;41.42;95644.00;5011280;28;20037;-61
2022/01/12 05:40:25;;;;;;;0.40;0.40;;;;;;;17.70;41.23;95637.69;5006241;28;20044;-61
2022/01/12 05:42:51;;;;;;;0.40;0.40;;;;;;;17.69;41.18;95646.63;4992740;28;20069;-61
2022/01/12 05:45:18;;;;;;;0.40;0.40;;;;;;;17.67;41.35;95648.63;4990705;28;20030;-61
2022/01/12 05:50:10;;;;;;;0.38;0.38;;;;;;;17.65;41.29;95656.75;5009989;28;20176;-61
2022/01/12 05:52:36;;;;;;;0.45;0.40;;;;;;;17.64;41.27;95660.38;4979474;28;20029;-61
2022/01/12 05:55:02;;;;;;;0.30;0.30;;;;;;;17.68;41.30;95661.56;5021060;28;20041;-61
2022/01/12 05:57:30;;;;;;;0.30;0.30;;;;;;;17.68;41.28;95663.41;5017600;28;20108;-61
2022/01/12 05:59:56;;;;;;;0.40;0.40;;;;;;;17.69;41.29;95659.78;5014030;28;20048;-61
2022/01/12 06:02:21;;;;;;;0.40;0.40;;;;;;;17.67;41.18;95659.16;5011708;28;20025;-61
2022/01/12 06:04:47;;;;;;;0.30;0.30;;;;;;;17.68;41.38;95661.56;5002762;28;20032;-61
2022/01/12 06:07:12;;;;;;;0.38;0.38;;;;;;;17.67;41.35;95672.31;5015187;28;20031;-61
2022/01/12 06:09:40;;;;;;;0.40;0.40;;;;;;;17.67;41.18;95667.03;5029128;28;20032;-61
2022/01/12 06:12:05;;;;;;;0.40;0.40;;;;;;;17.67;41.32;95667.03;5000820;28;20029;-61
2022/01/12 06:14:31;;;;;;;0.30;0.30;;;;;;;17.66;41.33;95668.06;5033443;28;20025;-61
2022/01/12 06:16:56;;;;;;;0.50;0.40;;;;;;;17.68;41.21;95677.34;4995502;28;20025;-61
2022/01/12 06:19:22;;;;;;;0.50;0.50;;;;;;;17.64;41.22;95683.25;4993515;28;20026;-61
2022/01/12 06:21:47;;;;;;;0.40;0.40;;;;;;;17.65;41.26;95690.94;4995866;28;20053;-62
2022/01/12 06:24:13;;;;;;;0.40;0.40;;;;;;;17.66;41.32;95689.13;5019804;28;20025;-61
2022/01/12 06:26:38;;;;;;;0.30;0.30;;;;;;;17.65;41.31;95685.69;5000254;28;20033;-60
2022/01/12 06:31:39;;;;;;;0.40;0.40;;;;;;;17.66;41.49;95712.78;5010907;28;20120;-61
2022/01/12 06:34:04;;;;;;;0.40;0.40;;;;;;;17.68;41.20;95716.03;4996328;28;20104;-61
2022/01/12 06:36:30;;;;;;;0.43;0.43;;;;;;;17.68;41.07;95729.97;5032072;28;20079;-61
2022/01/12 06:38:55;;;;;;;0.40;0.40;;;;;;;17.62;41.32;95724.75;5005777;28;20092;-61
2022/01/12 06:41:23;;;;;;;0.40;0.40;;;;;;;17.65;41.23;95740.09;4999815;28;20044;-61
2022/01/12 06:43:48;;;;;;;0.50;0.50;;;;;;;17.63;41.50;95745.59;5011424;28;20051;-61
2022/01/12 06:46:15;;;;;;;0.30;0.30;;;;;;;17.68;41.28;95755.47;5011110;28;20030;-61
2022/01/12 06:48:40;;;;;;;0.30;0.30;;;;;;;17.65;41.31;95755.88;4993380;28;20025;-61
2022/01/12 06:51:06;;;;;;;0.40;0.40;;;;;;;17.68;41.32;95758.09;4994460;28;20110;-60
2022/01/12 06:53:32;;;;;;;0.40;0.40;;;;;;;17.68;41.27;95756.28;4999154;28;20041;-61
2022/01/12 06:55:58;;;;;;;0.40;0.40;;;;;;;17.65;41.42;95740.09;4997723;28;20033;-61
2022/01/12 06:58:23;;;;;;;0.40;0.40;;;;;;;17.67;41.31;95740.69;4993570;28;20026;-61
2022/01/12 07:00:49;;;;;;;0.30;0.30;;;;;;;17.66;41.33;95726.75;4989187;28;20030;-61
2022/01/12 07:03:14;;;;;;;0.35;0.35;;;;;;;17.64;41.43;95727.97;4986858;28;20119;-61
2022/01/12 07:05:40;;;;;;;0.30;0.30;;;;;;;17.66;41.12;95744.34;4992624;28;20033;-61
2022/01/12 07:08:05;;;;;;;0.40;0.40;;;;;;;17.65;41.26;95748.81;4988109;28;20025;-61
2022/01/12 07:10:30;;;;;;;0.40;0.40;;;;;;;17.65;41.41;95743.56;4997782;28;20111;-61
2022/01/12 07:12:56;;;;;;;0.50;0.50;;;;;;;17.67;41.33;95745.97;5010957;28;20033;-61
2022/01/12 07:15:21;;;;;;;0.40;0.40;;;;;;;17.67;41.21;95752.06;4998148;28;20047;-61
2022/01/12 07:17:48;;;;;;;0.30;0.30;;;;;;;17.60;41.42;95756.53;5021537;28;20121;-60
2022/01/12 07:20:14;;;;;;;0.30;0.30;;;;;;;17.66;41.34;95779.34;4989157;28;20033;-61
2022/01/12 07:22:40;;;;;;;0.40;0.40;;;;;;;17.66;41.39;95776.72;4986260;28;20116;-60
2022/01/12 07:25:06;;;;;;;0.30;0.30;;;;;;;17.68;41.31;95781.78;5012458;28;20116;-61
2022/01/12 07:27:31;;;;;;;0.40;0.40;;;;;;;17.63;41.21;95765.81;5013675;28;20101;-61
2022/01/12 07:29:57;;;;;;;0.40;0.40;;;;;;;17.64;41.11;95773.50;4989740;28;20041;-61
2022/01/12 07:32:25;;;;;;;0.40;0.40;;;;;;;17.65;41.31;95774.28;5024820;28;20048;-61
2022/01/12 07:34:51;;;;;;;0.30;0.30;;;;;;;17.63;41.06;95792.13;5008442;28;20483;-61
2022/01/12 07:37:16;;;;;;;0.43;0.43;;;;;;;17.67;41.47;95803.84;5004434;28;20123;-61
2022/01/12 07:39:42;;;;;;;0.40;0.40;;;;;;;17.64;41.17;95791.13;5000076;28;20036;-61
2022/01/12 07:42:11;;;;;;;0.40;0.40;;;;;;;17.67;41.04;95782.78;5009880;28;20037;-61
2022/01/12 07:44:36;;;;;;;0.40;0.40;;;;;;;17.64;41.25;95788.47;5011497;28;20036;-61
2022/01/12 07:47:02;;;;;;;0.40;0.40;;;;;;;17.64;41.20;95786.66;5009249;28;20033;-61
2022/01/12 07:49:27;;;;;;;0.40;0.40;;;;;;;17.63;41.21;95792.13;4991363;28;20141;-61
2022/01/12 07:51:53;;;;;;;0.40;0.40;;;;;;;17.66;41.38;95794.34;5006193;28;20030;-61
2022/01/12 07:54:18;;;;;;;0.50;0.50;;;;;;;17.63;41.31;95790.31;5009692;28;20033;-61
2022/01/12 07:56:44;;;;;;;0.40;0.40;;;;;;;17.62;41.41;95798.41;5008571;28;20030;-61
2022/01/12 07:59:09;;;;;;;0.47;0.47;;;;;;;17.67;41.10;95809.09;4982256;28;20021;-61
2022/01/12 08:01:34;;;;;;;0.40;0.40;;;;;;;17.61;41.28;95804.66;5013629;28;20063;-61
2022/01/12 08:04:00;;;;;;;0.40;0.40;;;;;;;17.63;41.26;95818.41;4995374;28;20038;-61
2022/01/12 08:06:25;;;;;;;0.30;0.30;;;;;;;17.63;41.25;95823.69;5016556;28;20036;-61
2022/01/12 08:08:51;;;;;;;0.50;0.50;;;;;;;17.66;41.29;95831.16;5024024;28;20071;-61
2022/01/12 08:11:16;;;;;;;0.38;0.38;;;;;;;17.65;41.18;95838.25;5002847;28;20083;-61
2022/01/12 08:13:45;;;;;;;0.30;0.30;;;;;;;17.66;41.20;95847.75;4989493;28;20048;-61
2022/01/12 08:16:10;;;;;;;0.85;0.32;;;;;;;17.64;41.13;95841.09;5024527;28;20025;-61
2022/01/12 08:18:35;;;;;;;0.40;0.40;;;;;;;17.63;41.17;95832.41;5012499;28;20038;-61
2022/01/12 08:21:03;;;;;;;0.40;0.40;;;;;;;17.63;41.41;95844.72;4991032;28;20045;-62
2022/01/12 08:23:28;;;;;;;0.30;0.30;;;;;;;17.65;41.20;95842.69;5024732;28;20024;-61
2022/01/12 08:25:54;;;;;;;0.50;0.50;;;;;;;17.64;41.18;95827.94;5006332;28;20030;-61
2022/01/12 08:28:19;;;;;;;0.40;0.40;;;;;;;17.65;41.16;95843.53;5001331;28;20036;-62
2022/01/12 08:30:44;;;;;;;0.30;0.30;;;;;;;17.66;41.54;95839.84;4987107;28;20025;-61
2022/01/12 08:33:11;;;;;;;0.30;0.30;;;;;;;17.65;41.26;95837.44;5017069;28;20029;-61
2022/01/12 08:35:36;;;;;;;0.40;0.40;;;;;;;17.64;41.50;95838.47;5009635;28;20115;-61
2022/01/12 08:38:02;;;;;;;0.30;0.30;;;;;;;17.63;41.33;95850.81;4993682;28;20034;-61
2022/01/12 08:40:30;;;;;;;0.30;0.30;;;;;;;17.65;41.32;95853.22;5009298;28;20033;-61
2022/01/12 08:42:55;;;;;;;0.40;0.40;;;;;;;17.66;41.26;95855.66;5007775;28;20033;-61
2022/01/12 08:45:21;;;;;;;0.30;0.30;;;;;;;17.64;41.34;95851.63;4991801;28;20029;-60
2022/01/12 08:47:46;;;;;;;0.40;0.40;;;;;;;17.65;41.31;95851.41;4997619;28;20029;-60
2022/01/12 08:50:12;;;;;;;0.40;0.40;;;;;;;17.66;41.23;95860.09;4989591;28;20036;-60
2022/01/12 08:52:37;;;;;;;0.30;0.30;;;;;;;17.65;41.26;95850.59;5032691;28;20037;-61
2022/01/12 08:55:05;;;;;;;0.30;0.30;;;;;;;17.64;41.31;95847.16;4987541;28;20026;-60
2022/01/12 08:57:31;;;;;;;0.22;0.22;;;;;;;17.63;41.37;95852.63;4998746;28;20072;-61
2022/01/12 08:59:57;;;;;;;0.38;0.38;;;;;;;17.66;41.31;95862.72;5007873;28;20047;-60
2022/01/12 09:02:23;;;;;;;0.38;0.38;;;;;;;17.64;41.17;95862.13;5007408;28;20041;-61
2022/01/12 09:04:48;;;;;;;0.30;0.30;;;;;;;17.61;41.33;95855.47;5005745;28;20026;-62
2022/01/12 09:07:14;;;;;;;0.30;0.30;;;;;;;17.62;41.16;95862.34;4989213;28;20026;-60
2022/01/12 09:09:39;;;;;;;0.40;0.40;;;;;;;17.63;41.13;95873.66;4995910;28;20025;-60
2022/01/12 09:12:05;;;;;;;0.40;0.40;;;;;;;17.61;41.28;95875.69;4993534;28;20041;-61
2022/01/12 09:14:31;;;;;;;0.30;0.30;;;;;;;17.64;41.27;95870.03;4993116;28;20039;-61
2022/01/12 09:16:57;;;;;;;0.30;0.30;;;;;;;17.61;41.24;95873.06;5008941;28;20025;-61
2022/01/12 09:19:23;;;;;;;0.40;0.40;;;;;;;17.61;41.24;95873.06;5007683;28;20200;-61
2022/01/12 09:21:48;;;;;;;0.30;0.30;;;;;;;17.62;41.32;95878.13;5006312;28;20038;-61
2022/01/12 09:24:14;;;;;;;0.30;0.30;;;;;;;17.63;41.17;95876.28;4987580;28;20030;-61
2022/01/12 09:26:39;;;;;;;0.40;0.40;;;;;;;17.64;41.26;95875.28;5013816;28;20120;-61
2022/01/12 09:29:05;;;;;;;0.30;0.30;;;;;;;17.61;41.26;95875.69;4991472;28;20025;-61
2022/01/12 09:31:30;;;;;;;0.30;0.30;;;;;;;17.61;41.33;95876.53;5009249;28;20065;-61
2022/01/12 09:33:56;;;;;;;0.30;0.30;;;;;;;17.66;41.34;95881.16;5009186;28;20037;-61
2022/01/12 09:36:21;;;;;;;0.40;0.40;;;;;;;17.65;41.13;95882.16;5007443;28;20383;-61
2022/01/12 09:38:47;;;;;;;0.30;0.30;;;;;;;17.65;41.31;95869.00;5008595;28;20080;-61
2022/01/12 09:41:12;;;;;;;0.30;0.30;;;;;;;17.66;41.25;95873.25;5007173;28;20071;-61
2022/01/12 09:43:39;;;;;;;0.40;0.40;;;;;;;17.63;41.15;95868.41;5007804;28;20037;-61
2022/01/12 09:46:04;;;;;;;0.30;0.30;;;;;;;17.65;41.17;95861.09;5005959;28;20033;-61
2022/01/12 09:48:33;;;;;;;0.30;0.30;;;;;;;17.62;41.12;95851.00;4997180;28;20037;-61
2022/01/12 09:51:02;;;;;;;0.40;0.40;;;;;;;17.66;41.33;95868.00;5013838;28;20052;-61
2022/01/12 09:53:32;;;;;;;0.30;0.30;;;;;;;17.63;41.17;95868.41;5012218;28;20063;-61
2022/01/12 09:55:57;;;;;;;0.30;0.30;;;;;;;17.64;41.28;95868.19;4994774;28;20142;-61
2022/01/12 09:58:22;;;;;;;0.40;0.40;;;;;;;17.65;41.16;95874.25;5010087;28;20174;-61
2022/01/12 10:00:56;;;;;;;0.32;0.32;;;;;;;17.64;41.18;95868.19;4998380;28;20061;-62
2022/01/12 10:03:23;;;;;;;0.40;0.40;;;;;;;17.62;41.29;95867.59;5027867;28;20040;-61
2022/01/12 10:05:49;;;;;;;0.40;0.40;;;;;;;17.61;41.29;95866.00;5016849;28;20036;-61
2022/01/12 10:08:15;;;;;;;0.30;0.30;;;;;;;17.62;41.32;95866.78;4994827;28;20029;-61
2022/01/12 10:10:41;;;;;;;0.38;0.38;;;;;;;17.62;41.27;95864.16;4999266;28;20097;-61
2022/01/12 10:13:23;;;;;;;0.55;0.55;;;;;;;17.64;41.11;95856.88;4993866;28;20053;-61
2022/01/12 10:15:52;;;;;;;0.30;0.30;;;;;;;17.63;41.14;95863.97;4994087;28;20030;-61
2022/01/12 10:18:18;;;;;;;0.30;0.30;;;;;;;17.62;41.17;95861.53;5016915;28;20079;-61
2022/01/12 10:20:45;;;;;;;0.30;0.30;;;;;;;17.64;41.28;95851.63;5025080;28;20038;-61
2022/01/12 10:23:12;;;;;;;0.40;0.40;;;;;;;17.64;41.11;95843.72;5005469;28;20026;-61
2022/01/12 10:25:37;;;;;;;0.30;0.30;;;;;;;17.65;41.33;95854.03;5006603;28;20121;-61
2022/01/12 10:28:19;;;;;;;0.30;0.30;;;;;;;17.65;41.20;95855.84;4999089;28;20108;-60
2022/01/12 10:31:00;;;;;;;0.40;0.40;;;;;;;17.63;41.24;95840.28;5001771;28;20037;-61
2022/01/12 10:33:29;;;;;;;0.35;0.35;;;;;;;17.60;41.27;95838.06;5012479;28;20033;-62
2022/01/12 10:36:02;;;;;;;0.52;0.40;;;;;;;17.61;41.19;95823.91;4990812;28;20029;-61
2022/01/12 10:38:27;;;;;;;0.30;0.30;;;;;;;17.63;41.27;95811.34;5001727;28;20026;-61
2022/01/12 10:40:56;;;;;;;0.40;0.40;;;;;;;17.59;41.19;95802.25;5011435;28;20026;-61
2022/01/12 10:43:29;;;;;;;0.30;0.30;;;;;;;17.62;41.23;95796.56;5029349;28;20030;-61
2022/01/12 10:45:55;;;;;;;0.20;0.20;;;;;;;17.57;41.18;95799.84;4988731;28;20116;-61
2022/01/12 10:48:20;;;;;;;0.30;0.30;;;;;;;17.63;41.06;95802.63;5023231;28;20033;-61
2022/01/12 10:50:56;;;;;;;0.30;0.30;;;;;;;17.63;41.16;95797.38;4995075;28;20037;-61
2022/01/12 10:53:33;;;;;;;0.20;0.20;;;;;;;17.59;41.31;95786.47;5016503;28;20033;-61
2022/01/12 10:56:04;;;;;;;0.22;0.22;;;;;;;17.62;41.07;95790.50;4988506;28;20040;-61
2022/01/12 10:58:30;;;;;;;0.30;0.30;;;;;;;17.61;41.29;95796.78;5024729;28;20029;-61
2022/01/12 11:00:56;;;;;;;0.30;0.30;;;;;;;17.60;41.25;95795.97;5013453;28;20044;-61
2022/01/12 11:03:21;;;;;;;0.30;0.30;;;;;;;17.64;41.09;95793.75;4995435;28;20029;-61
2022/01/12 11:05:47;;;;;;;0.40;0.40;;;;;;;17.64;41.21;95797.16;5001895;28;20087;-61
2022/01/12 11:08:13;;;;;;;0.38;0.38;;;;;;;17.62;40.92;95793.94;5016439;28;20040;-60
2022/01/12 11:10:38;;;;;;;0.40;0.40;;;;;;;17.63;41.04;95792.13;5007402;28;20034;-61
2022/01/12 11:13:03;;;;;;;0.30;0.30;;;;;;;17.62;41.13;95785.25;5005292;28;20028;-61
2022/01/12 11:15:29;;;;;;;0.30;0.30;;;;;;;17.61;41.17;95781.00;5016431;28;20022;-61
2022/01/12 11:17:54;;;;;;;0.40;0.40;;;;;;;17.63;41.14;95792.13;5011024;28;20029;-61
2022/01/12 11:20:26;;;;;;;0.30;0.30;;;;;;;17.61;41.27;95804.66;4994736;28;20026;-61
2022/01/12 11:23:08;;;;;;;0.40;0.40;;;;;;;17.62;41.09;95808.94;5037087;28;20029;-61
2022/01/12 11:25:50;;;;;;;0.32;0.32;;;;;;;17.57;41.46;95801.63;5010716;28;20056;-61
2022/01/12 11:28:35;;;;;;;0.40;0.40;;;;;;;17.59;41.18;95813.59;4994623;28;20027;-61
2022/01/12 11:31:01;;;;;;;0.30;0.30;;;;;;;17.58;41.15;95814.59;4984872;28;20041;-61
2022/01/12 11:33:32;;;;;;;0.30;0.30;;;;;;;17.60;41.24;95809.13;5007964;28;20025;-61
2022/01/12 11:36:28;;;;;;;0.30;0.30;;;;;;;17.60;41.12;95809.13;5025404;28;20108;-60
2022/01/12 11:39:08;;;;;;;0.40;0.40;;;;;;;17.59;41.03;95808.31;4973881;28;20030;-61
2022/01/12 11:41:34;;;;;;;0.30;0.30;;;;;;;17.63;41.04;95797.38;4970566;28;20089;-61
2022/01/12 11:44:10;;;;;;;0.30;0.30;;;;;;;17.58;41.04;95790.91;4979048;28;20030;-61
2022/01/12 11:46:47;;;;;;;0.32;0.32;;;;;;;17.61;41.00;95797.59;4969457;28;20053;-61
2022/01/12 11:49:43;;;;;;;0.30;0.30;;;;;;;17.58;41.16;95793.53;5001009;28;20048;-61
2022/01/12 11:52:26;;;;;;;0.40;0.40;;;;;;;17.59;41.07;95800.44;4969595;28;20066;-61
2022/01/12 11:55:10;;;;;;;0.30;0.30;;;;;;;17.59;40.93;95805.69;4983628;28;20124;-61
2022/01/12 11:57:38;;;;;;;0.30;0.30;;;;;;;17.58;41.16;95811.97;4978943;28;20033;-61
2022/01/12 12:00:27;;;;;;;0.40;0.40;;;;;;;17.63;41.05;95821.03;4966990;28;20125;-60
2022/01/12 12:02:52;;;;;;;0.40;0.40;;;;;;;17.57;41.18;95820.88;4970690;28;20042;-61
2022/01/12 12:05:20;;;;;;;0.20;0.20;;;;;;;17.57;41.00;95817.41;4985780;28;20033;-61
2022/01/12 12:07:48;;;;;;;0.30;0.30;;;;;;;17.62;41.06;95811.56;4985162;28;20049;-61
2022/01/12 12:10:17;;;;;;;0.30;0.30;;;;;;;17.61;40.92;95810.75;5001304;28;20069;-61
2022/01/12 12:12:43;;;;;;;0.30;0.30;;;;;;;17.61;41.07;95816.03;4971848;28;20034;-61
2022/01/12 12:15:09;;;;;;;0.40;0.40;;;;;;;17.61;41.00;95805.50;4990406;28;20048;-61
2022/01/12 12:17:36;;;;;;;0.30;0.30;;;;;;;17.59;40.96;95807.50;5009090;28;20096;-61
2022/01/12 12:20:02;;;;;;;0.30;0.30;;;;;;;17.58;41.03;95819.84;5010348;28;20090;-61
2022/01/12 12:22:29;;;;;;;3.40;0.40;;;;;;;17.39;41.25;95828.59;5008660;28;20029;-61
2022/01/12 12:24:57;;;;;;;1.45;0.40;;;;;;;17.66;40.83;95828.53;5008804;28;20044;-61
2022/01/12 12:27:24;;;;;;;0.70;0.38;;;;;;;17.59;41.25;95839.88;5008360;28;20033;-60
2022/01/12 12:29:50;;;;;;;1.73;0.40;;;;;;;17.58;41.12;95832.19;5020716;28;20022;-61
2022/01/12 12:32:16;;;;;;;0.65;0.40;;;;;;;17.61;41.12;95841.50;4989593;28;20022;-61
2022/01/12 12:34:42;;;;;;;0.45;0.30;;;;;;;17.59;40.97;95837.25;4990340;28;20026;-67
2022/01/12 12:37:12;;;;;;;2.25;0.50;;;;;;;17.51;41.19;95821.69;5003398;28;20411;-62
2022/01/12 12:39:43;;;;;;;2.58;0.40;;;;;;;17.57;41.33;95839.28;5011987;28;20056;-61
2022/01/12 12:42:18;;;;;;;1.33;0.40;;;;;;;17.57;41.17;95838.47;4995747;28;20052;-61
2022/01/12 12:44:44;;;;;;;0.80;0.45;;;;;;;17.54;41.22;95831.81;5015617;28;20040;-60
2022/01/12 12:47:11;;;;;;;0.85;0.30;;;;;;;17.53;41.21;95821.47;5012369;28;20026;-62
2022/01/12 12:49:54;;;;;;;0.77;0.30;;;;;;;17.53;41.35;95829.38;5007109;28;20030;-62
2022/01/12 12:52:31;;;;;;;1.70;0.50;;;;;;;17.52;41.47;95815.41;4993241;28;20029;-61
2022/01/12 12:55:01;;;;;;;1.02;0.50;;;;;;;17.54;41.23;95815.22;4989245;28;20036;-61
2022/01/12 12:57:27;;;;;;;1.27;0.40;;;;;;;17.52;41.22;95812.78;4999672;28;20064;-61
2022/01/12 13:00:08;;;;;;;0.50;0.50;;;;;;;17.53;41.10;95809.13;5010964;28;20076;-61